createdAt,value
2023-04-10T00:00:11.534Z,3.70
2023-04-10T00:02:38.879Z,3.70
2023-04-10T00:05:08.003Z,3.60
2023-04-10T00:07:35.751Z,3.60
2023-04-10T00:10:03.116Z,3.60
2023-04-10T00:12:30.671Z,3.50
2023-04-10T00:14:58.289Z,3.40
2023-04-10T00:17:25.745Z,3.40
2023-04-10T00:19:52.965Z,3.30
2023-04-10T00:22:20.852Z,3.20
2023-04-10T00:24:48.252Z,3.10
2023-04-10T00:27:15.555Z,3.10
2023-04-10T00:29:42.796Z,3.00
2023-04-10T00:32:10.374Z,2.90
2023-04-10T00:34:37.602Z,2.90
2023-04-10T00:37:04.841Z,2.90
2023-04-10T00:39:32.068Z,2.90
2023-04-10T00:42:01.464Z,2.90
2023-04-10T00:44:28.891Z,2.90
2023-04-10T00:46:56.314Z,2.80
2023-04-10T00:49:24.172Z,2.80
2023-04-10T00:51:52.394Z,2.80
2023-04-10T00:54:19.852Z,2.80
2023-04-10T00:56:48.644Z,2.80
2023-04-10T00:59:16.328Z,2.80
2023-04-10T01:01:46.010Z,2.90
2023-04-10T01:04:14.386Z,2.90
2023-04-10T01:07:11.977Z,3.30
2023-04-10T01:09:47.401Z,3.50
2023-04-10T01:12:40.655Z,3.50
2023-04-10T01:15:12.450Z,3.50
2023-04-10T01:17:46.057Z,3.50
2023-04-10T01:20:19.077Z,3.50
2023-04-10T01:23:11.077Z,3.60
2023-04-10T01:25:59.019Z,3.90
2023-04-10T01:28:53.201Z,4.30
2023-04-10T01:31:28.228Z,4.40
2023-04-10T01:34:01.032Z,4.60
2023-04-10T01:36:34.910Z,4.70
2023-04-10T01:39:04.213Z,4.80
2023-04-10T01:41:34.045Z,5.00
2023-04-10T01:44:03.863Z,5.00
2023-04-10T01:46:32.689Z,5.10
2023-04-10T01:49:01.996Z,5.10
2023-04-10T01:51:32.553Z,5.30
2023-04-10T01:54:04.634Z,5.30
2023-04-10T01:56:34.397Z,5.30
2023-04-10T01:59:03.640Z,5.40
2023-04-10T02:01:31.309Z,5.40
2023-04-10T02:03:59.410Z,5.40
2023-04-10T02:06:37.570Z,5.40
2023-04-10T02:09:15.893Z,5.30
2023-04-10T02:12:01.589Z,5.20
2023-04-10T02:14:32.410Z,5.20
2023-04-10T02:17:02.548Z,5.20
2023-04-10T02:19:31.918Z,5.20
2023-04-10T02:21:59.818Z,5.20
2023-04-10T02:24:27.439Z,5.20
2023-04-10T02:26:54.876Z,5.10
2023-04-10T02:29:23.696Z,5.20
2023-04-10T02:31:50.959Z,5.20
2023-04-10T02:34:19.946Z,5.20
2023-04-10T02:36:47.132Z,5.20
2023-04-10T02:39:15.360Z,5.20
2023-04-10T02:41:51.691Z,5.10
2023-04-10T02:44:19.064Z,5.10
2023-04-10T02:46:47.068Z,5.10
2023-04-10T02:49:15.823Z,5.10
2023-04-10T02:51:43.080Z,5.00
2023-04-10T02:54:10.680Z,5.10
2023-04-10T02:56:40.010Z,5.00
2023-04-10T02:59:07.956Z,5.00
2023-04-10T03:01:35.825Z,5.00
2023-04-10T03:04:03.953Z,5.00
2023-04-10T03:06:36.500Z,4.90
2023-04-10T03:09:06.435Z,4.90
2023-04-10T03:11:34.526Z,4.90
2023-04-10T03:14:01.848Z,4.90
2023-04-10T03:16:29.410Z,4.90
2023-04-10T03:18:57.908Z,4.90
2023-04-10T03:21:25.497Z,4.80
2023-04-10T03:23:53.101Z,4.70
2023-04-10T03:26:21.320Z,4.70
2023-04-10T03:28:49.178Z,4.60
2023-04-10T03:31:16.597Z,4.60
2023-04-10T03:33:46.226Z,4.60
2023-04-10T03:36:14.144Z,4.50
2023-04-10T03:38:41.374Z,4.50
2023-04-10T03:41:10.046Z,4.50
2023-04-10T03:43:39.529Z,4.60
2023-04-10T03:46:07.291Z,4.50
2023-04-10T03:48:41.486Z,4.60
2023-04-10T03:51:08.736Z,4.70
2023-04-10T03:53:36.358Z,4.60
2023-04-10T03:56:08.623Z,4.60
2023-04-10T03:58:37.783Z,4.60
2023-04-10T04:01:05.800Z,4.60
2023-04-10T04:03:52.904Z,4.60
2023-04-10T04:06:48.685Z,4.50
2023-04-10T04:09:34.872Z,4.60
2023-04-10T04:12:15.965Z,4.60
2023-04-10T04:15:03.220Z,4.60
2023-04-10T04:17:52.056Z,4.60
2023-04-10T04:20:38.212Z,4.50
2023-04-10T04:23:28.829Z,4.50
2023-04-10T04:26:15.340Z,4.40
2023-04-10T04:29:01.013Z,4.40
2023-04-10T04:31:47.488Z,4.40
2023-04-10T04:34:46.202Z,4.40
2023-04-10T04:37:25.219Z,4.50
2023-04-10T04:40:16.468Z,4.60
2023-04-10T04:42:59.341Z,4.60
2023-04-10T04:45:59.689Z,4.60
2023-04-10T04:48:59.432Z,4.70
2023-04-10T04:51:42.719Z,4.70
2023-04-10T04:54:24.611Z,4.70
2023-04-10T04:57:09.793Z,4.80
2023-04-10T05:00:10.083Z,4.90
2023-04-10T05:03:04.202Z,5.10
2023-04-10T05:05:56.910Z,5.30
2023-04-10T05:08:56.896Z,5.50
2023-04-10T05:11:31.196Z,5.60
2023-04-10T05:14:22.034Z,5.70
2023-04-10T05:17:03.323Z,5.80
2023-04-10T05:20:01.143Z,6.00
2023-04-10T05:22:47.017Z,6.20
2023-04-10T05:25:35.733Z,6.20
2023-04-10T05:28:18.189Z,6.40
2023-04-10T05:31:04.655Z,6.60
2023-04-10T05:33:47.813Z,6.80
2023-04-10T05:36:33.676Z,6.90
2023-04-10T05:39:17.381Z,7.10
2023-04-10T05:42:03.415Z,7.30
2023-04-10T05:44:45.837Z,7.40
2023-04-10T05:47:31.680Z,7.50
2023-04-10T05:50:13.245Z,7.60
2023-04-10T05:52:59.397Z,7.70
2023-04-10T05:55:45.366Z,7.80
2023-04-10T05:58:26.854Z,7.90
2023-04-10T06:01:25.118Z,8.00
2023-04-10T06:04:03.028Z,8.00
2023-04-10T06:06:33.606Z,8.00
2023-04-10T06:09:00.974Z,8.10
2023-04-10T06:11:28.813Z,8.20
2023-04-10T06:13:57.815Z,8.30
2023-04-10T06:16:32.767Z,8.40
2023-04-10T06:19:01.032Z,8.50
2023-04-10T06:21:29.363Z,8.70
2023-04-10T06:23:56.864Z,8.90
2023-04-10T06:26:25.516Z,9.00
2023-04-10T06:28:53.480Z,9.20
2023-04-10T06:31:24.384Z,9.40
2023-04-10T06:33:51.722Z,9.60
2023-04-10T06:36:19.260Z,9.80
2023-04-10T06:38:57.581Z,9.90
2023-04-10T06:41:25.647Z,10.10
2023-04-10T06:43:55.292Z,10.30
2023-04-10T06:46:22.555Z,10.50
2023-04-10T06:48:49.777Z,10.60
2023-04-10T06:51:17.258Z,10.70
2023-04-10T06:53:44.480Z,11.00
2023-04-10T06:56:11.978Z,11.60
2023-04-10T06:58:39.191Z,12.30
2023-04-10T07:01:06.714Z,13.10
2023-04-10T07:03:34.450Z,13.20
2023-04-10T07:06:03.211Z,13.20
2023-04-10T07:08:31.084Z,13.30
2023-04-10T07:10:59.097Z,13.80
2023-04-10T07:13:27.345Z,14.30
2023-04-10T07:15:54.766Z,15.00
2023-04-10T07:18:22.694Z,15.60
2023-04-10T07:20:51.428Z,16.60
2023-04-10T07:23:19.602Z,17.40
2023-04-10T07:25:46.967Z,17.80
2023-04-10T07:28:14.262Z,18.00
2023-04-10T07:30:41.819Z,18.60
2023-04-10T07:33:09.279Z,18.60
2023-04-10T07:35:37.182Z,19.20
2023-04-10T07:38:05.009Z,19.30
2023-04-10T07:40:32.431Z,18.90
2023-04-10T07:42:59.615Z,19.50
2023-04-10T07:45:28.530Z,20.20
2023-04-10T07:47:55.884Z,20.80
2023-04-10T07:50:23.916Z,21.10
2023-04-10T07:52:51.498Z,20.50
2023-04-10T07:55:18.988Z,20.60
2023-04-10T07:57:46.570Z,21.30
2023-04-10T08:00:14.487Z,22.30
2023-04-10T08:02:43.309Z,22.50
2023-04-10T08:05:10.863Z,23.10
2023-04-10T08:07:38.739Z,23.90
2023-04-10T08:10:06.800Z,24.80
2023-04-10T08:12:34.574Z,24.60
2023-04-10T08:15:01.880Z,23.80
2023-04-10T08:17:30.360Z,23.00
2023-04-10T08:19:57.685Z,22.50
2023-04-10T08:22:25.078Z,22.80
2023-04-10T08:24:52.408Z,23.30
2023-04-10T08:27:19.845Z,23.50
2023-04-10T08:29:47.259Z,23.00
2023-04-10T08:32:15.091Z,23.70
2023-04-10T08:34:42.747Z,23.80
2023-04-10T08:37:12.183Z,24.40
2023-04-10T08:39:40.151Z,24.40
2023-04-10T08:42:08.254Z,25.10
2023-04-10T08:44:37.180Z,25.90
2023-04-10T12:16:25.857Z,25.80
2023-04-10T12:18:53.926Z,26.20
2023-04-10T12:21:21.643Z,26.10
2023-04-10T12:23:49.025Z,26.30
2023-04-10T12:26:17.690Z,26.70
2023-04-10T12:28:53.638Z,26.60
2023-04-10T12:33:57.741Z,26.80
2023-04-10T12:36:29.220Z,28.00
2023-04-10T12:38:57.693Z,27.70
2023-04-10T12:41:27.248Z,26.60
2023-04-10T12:44:13.456Z,27.10
2023-04-10T12:46:41.853Z,27.60
2023-04-10T12:49:16.937Z,27.80
2023-04-10T12:51:52.299Z,26.90
2023-04-10T12:54:33.523Z,26.40
2023-04-10T12:57:03.672Z,25.80
2023-04-10T12:59:31.469Z,24.80
2023-04-10T13:01:58.898Z,24.40
2023-04-10T13:04:27.202Z,24.10
2023-04-10T13:06:54.584Z,24.00
2023-04-10T13:09:22.272Z,24.60
2023-04-10T13:11:51.991Z,25.10
2023-04-10T13:14:19.789Z,24.70
2023-04-10T13:16:47.060Z,24.60
2023-04-10T13:19:14.404Z,23.80
2023-04-10T13:21:41.595Z,23.10
2023-04-10T13:24:08.766Z,22.80
2023-04-10T13:26:36.226Z,22.30
2023-04-10T13:29:03.413Z,22.20
2023-04-10T13:31:30.691Z,22.70
2023-04-10T13:33:57.906Z,22.70
2023-04-10T13:36:26.032Z,23.00
2023-04-10T13:38:54.125Z,22.60
2023-04-10T13:41:21.888Z,22.80
2023-04-10T13:43:49.213Z,22.60
2023-04-10T13:46:17.390Z,22.30
2023-04-10T13:48:44.618Z,22.20
2023-04-10T13:51:11.833Z,22.70
2023-04-10T13:53:39.168Z,22.90
2023-04-10T13:56:07.173Z,23.40
2023-04-10T13:58:34.496Z,23.30
2023-04-10T14:01:02.786Z,23.10
2023-04-10T14:03:30.114Z,22.80
2023-04-10T14:05:57.433Z,22.50
2023-04-10T14:08:24.617Z,22.50
2023-04-10T14:10:52.024Z,22.20
2023-04-10T14:13:20.519Z,21.90
2023-04-10T14:15:48.218Z,22.30
2023-04-10T14:18:18.184Z,22.70
2023-04-10T14:20:45.741Z,23.10
2023-04-10T14:23:18.026Z,23.30
2023-04-10T14:25:46.824Z,23.50
2023-04-10T14:28:17.659Z,23.80
2023-04-10T14:30:45.752Z,22.80
2023-04-10T14:33:13.021Z,21.90
2023-04-10T14:35:44.570Z,21.50
2023-04-10T14:38:12.580Z,21.30
2023-04-10T14:40:43.630Z,21.30
2023-04-10T14:43:11.492Z,21.30
2023-04-10T14:45:38.650Z,21.00
2023-04-10T14:48:06.134Z,20.90
2023-04-10T14:50:33.614Z,20.70
2023-04-10T14:53:00.863Z,20.70
2023-04-10T14:55:31.019Z,20.30
2023-04-10T14:57:58.799Z,20.30
2023-04-10T15:00:26.706Z,20.40
2023-04-10T15:02:54.218Z,20.40
2023-04-10T15:05:22.829Z,20.40
2023-04-10T15:07:50.037Z,20.40
2023-04-10T15:10:42.944Z,20.60
2023-04-10T15:13:10.174Z,20.40
2023-04-10T15:15:37.373Z,20.10
2023-04-10T15:18:04.650Z,20.20
2023-04-10T15:20:31.926Z,20.40
2023-04-10T15:22:59.107Z,20.70
2023-04-10T15:25:26.251Z,21.20
2023-04-10T15:27:57.561Z,21.40
2023-04-10T15:30:25.362Z,21.70
2023-04-10T15:32:53.167Z,21.70
2023-04-10T15:35:21.096Z,21.60
2023-04-10T15:37:48.627Z,21.70
2023-04-10T15:40:17.149Z,21.70
2023-04-10T15:42:44.520Z,21.50
2023-04-10T15:45:11.706Z,21.20
2023-04-10T15:47:39.430Z,20.90
2023-04-10T15:50:09.042Z,20.50
2023-04-10T15:52:37.448Z,19.90
2023-04-10T15:55:05.615Z,19.50
2023-04-10T15:57:32.811Z,19.20
2023-04-10T16:00:02.095Z,18.90
2023-04-10T16:02:32.349Z,18.80
2023-04-10T16:04:59.829Z,18.80
2023-04-10T16:07:27.313Z,18.80
2023-04-10T16:09:56.523Z,18.80
2023-04-10T16:12:23.689Z,18.80
2023-04-10T16:14:51.757Z,18.70
2023-04-10T16:17:19.057Z,18.60
2023-04-10T16:19:46.303Z,18.60
2023-04-10T16:22:13.511Z,18.40
2023-04-10T16:24:40.703Z,18.30
2023-04-10T16:27:08.257Z,18.20
2023-04-10T16:29:36.037Z,18.10
2023-04-10T16:32:03.670Z,18.00
2023-04-10T16:34:30.846Z,17.80
2023-04-10T16:36:58.718Z,17.70
2023-04-10T16:39:26.637Z,17.50
2023-04-10T16:41:53.801Z,17.40
2023-04-10T16:44:21.628Z,17.30
2023-04-10T16:46:48.966Z,17.20
2023-04-10T16:49:16.233Z,17.20
2023-04-10T16:51:43.490Z,17.10
2023-04-10T16:54:10.759Z,17.10
2023-04-10T16:56:38.076Z,17.00
2023-04-10T16:59:05.450Z,17.00
2023-04-10T17:01:35.104Z,16.90
2023-04-10T17:04:02.515Z,16.90
2023-04-10T17:06:29.917Z,16.90
2023-04-10T17:08:57.649Z,16.80
2023-04-10T17:11:25.489Z,16.80
2023-04-10T17:13:52.801Z,16.80
2023-04-10T17:16:20.175Z,16.70
2023-04-10T17:18:47.520Z,16.70
2023-04-10T17:21:15.195Z,16.60
2023-04-10T17:23:43.382Z,16.50
2023-04-10T17:26:14.935Z,16.40
2023-04-10T17:28:46.286Z,16.40
2023-04-10T17:31:15.051Z,16.40
2023-04-10T17:33:43.037Z,16.30
2023-04-10T17:36:12.227Z,16.20
2023-04-10T17:38:41.094Z,16.20
2023-04-10T17:41:09.544Z,16.00
2023-04-10T17:43:37.268Z,16.00
2023-04-10T17:46:04.845Z,16.00
2023-04-10T17:48:34.236Z,15.90
2023-04-10T17:51:09.904Z,15.90
2023-04-10T17:53:37.292Z,15.90
2023-04-10T17:56:04.906Z,15.90
2023-04-10T17:58:32.308Z,15.80
2023-04-10T18:00:59.678Z,15.80
2023-04-10T18:03:27.137Z,15.70
2023-04-10T18:05:55.525Z,15.60
2023-04-10T18:08:23.459Z,15.60
2023-04-10T18:10:50.928Z,15.60
2023-04-10T18:13:18.331Z,15.60
2023-04-10T18:15:45.732Z,15.50
2023-04-10T18:18:13.239Z,15.50
2023-04-10T18:20:40.658Z,15.50
2023-04-10T18:23:08.224Z,15.50
2023-04-10T18:25:36.013Z,15.40
2023-04-10T18:30:33.738Z,15.30
2023-04-10T18:33:03.153Z,15.30
2023-04-10T18:35:31.935Z,15.30
2023-04-10T18:37:59.274Z,15.20
2023-04-10T18:40:26.718Z,15.20
2023-04-10T18:42:54.230Z,15.20
2023-04-10T18:45:21.559Z,15.20
2023-04-10T18:47:48.919Z,15.20
2023-04-10T18:50:16.446Z,15.20
2023-04-10T18:52:43.767Z,15.20
2023-04-10T18:55:11.148Z,15.20
2023-04-10T18:57:38.561Z,15.20
2023-04-10T19:00:08.116Z,15.20
2023-04-10T19:02:35.688Z,15.10
2023-04-10T19:05:03.329Z,15.20
2023-04-10T19:07:32.662Z,15.20
2023-04-10T19:09:59.985Z,15.10
2023-04-10T19:12:27.289Z,15.00
2023-04-10T19:14:54.679Z,14.90
2023-04-10T19:17:24.726Z,14.80
2023-04-10T19:19:53.138Z,14.80
2023-04-10T19:22:20.414Z,14.90
2023-04-10T19:24:47.827Z,14.80
2023-04-10T19:27:15.512Z,14.80
2023-04-10T19:29:43.868Z,14.80
2023-04-10T19:32:11.813Z,14.80
2023-04-10T19:34:39.205Z,14.80
2023-04-10T19:37:06.560Z,14.80
2023-04-10T19:39:33.904Z,14.70
2023-04-10T19:42:01.856Z,14.70
2023-04-10T19:44:29.190Z,14.70
2023-04-10T19:46:57.164Z,14.70
2023-04-10T19:49:27.135Z,14.70
2023-04-10T19:51:56.584Z,14.70
2023-04-10T19:54:25.176Z,14.70
2023-04-10T19:56:52.493Z,14.70
2023-04-10T19:59:21.673Z,14.60
2023-04-10T20:01:49.518Z,14.60
2023-04-10T20:04:17.636Z,14.60
2023-04-10T20:06:45.086Z,14.70
2023-04-10T20:09:12.439Z,14.70
2023-04-10T20:11:39.741Z,14.70
2023-04-10T20:14:07.197Z,14.70
2023-04-10T20:16:34.620Z,14.70
2023-04-10T20:19:03.434Z,14.70
2023-04-10T20:21:32.026Z,14.60
2023-04-10T20:23:59.678Z,14.60
2023-04-10T20:26:26.995Z,14.60
2023-04-10T20:28:55.116Z,14.60
2023-04-10T20:31:22.781Z,14.50
2023-04-10T20:33:50.266Z,14.40
2023-04-10T20:36:17.978Z,14.40
2023-04-10T20:38:45.509Z,14.40
2023-04-10T20:41:13.471Z,14.30
2023-04-10T20:43:40.880Z,14.30
2023-04-10T20:46:08.886Z,14.40
2023-04-10T20:48:38.013Z,14.30
2023-04-10T20:51:06.349Z,14.40
2023-04-10T20:53:33.831Z,14.30
2023-04-10T20:56:02.572Z,14.40
2023-04-10T20:58:31.395Z,14.40
2023-04-10T21:00:58.617Z,14.30
2023-04-10T21:03:26.034Z,13.80
2023-04-10T21:05:54.210Z,13.30
2023-04-10T21:08:21.926Z,13.00
2023-04-10T21:10:49.249Z,12.80
2023-04-10T21:13:16.598Z,12.70
2023-04-10T21:15:44.576Z,12.50
2023-04-10T21:18:12.170Z,12.40
2023-04-10T21:20:39.348Z,12.20
2023-04-10T21:23:06.660Z,12.20
2023-04-10T21:25:35.789Z,12.00
2023-04-10T21:28:03.079Z,11.90
2023-04-10T21:30:30.467Z,11.80
2023-04-10T21:32:57.844Z,11.60
2023-04-10T21:35:25.109Z,11.50
2023-04-10T21:37:58.391Z,11.40
2023-04-10T21:40:33.722Z,11.30
2023-04-10T21:43:02.138Z,11.30
2023-04-10T21:45:34.296Z,11.30
2023-04-10T21:48:02.496Z,11.10
2023-04-10T21:50:29.779Z,10.90
2023-04-10T21:52:57.323Z,10.60
2023-04-10T21:55:24.500Z,10.40
2023-04-10T21:57:51.954Z,10.20
2023-04-10T22:00:21.279Z,9.90
2023-04-10T22:02:50.552Z,9.60
2023-04-10T22:05:17.805Z,9.50
2023-04-10T22:07:47.186Z,9.40
2023-04-10T22:10:14.509Z,9.40
2023-04-10T22:12:41.751Z,9.30
2023-04-10T22:15:09.643Z,9.20
2023-04-10T22:17:36.859Z,9.20
2023-04-10T22:20:04.436Z,9.10
2023-04-10T22:22:31.672Z,9.10
2023-04-10T22:24:58.972Z,9.00
2023-04-10T22:27:26.238Z,9.00
2023-04-10T22:30:03.288Z,8.90
2023-04-10T22:32:32.103Z,8.90
2023-04-10T22:35:00.558Z,8.90
2023-04-10T22:37:28.513Z,8.80
2023-04-10T22:39:56.525Z,8.80
2023-04-10T22:42:23.963Z,8.80
2023-04-10T22:44:51.671Z,8.80
2023-04-10T22:47:19.011Z,8.80
2023-04-10T22:49:46.172Z,8.80
2023-04-10T22:52:13.928Z,8.70
2023-04-10T22:54:41.520Z,8.80
2023-04-10T22:57:09.079Z,8.70
2023-04-10T22:59:37.395Z,8.70
2023-04-10T23:02:05.218Z,8.70
2023-04-10T23:04:32.666Z,8.70
2023-04-10T23:07:00.650Z,8.70
2023-04-10T23:09:27.873Z,8.70
2023-04-10T23:11:55.010Z,8.70
2023-04-10T23:14:22.362Z,8.70
2023-04-10T23:16:50.038Z,8.70
2023-04-10T23:19:18.697Z,8.70
2023-04-10T23:21:46.833Z,8.70
2023-04-10T23:24:13.988Z,8.70
2023-04-10T23:26:41.301Z,8.70
2023-04-10T23:29:08.877Z,8.70
2023-04-10T23:31:36.371Z,8.60
2023-04-10T23:34:03.721Z,8.70
2023-04-10T23:36:31.549Z,8.60
2023-04-10T23:38:58.791Z,8.60
2023-04-10T23:41:25.969Z,8.70
2023-04-10T23:43:53.152Z,8.70
2023-04-10T23:46:20.560Z,8.70
2023-04-10T23:48:47.757Z,8.70
2023-04-10T23:51:14.946Z,8.70
2023-04-10T23:53:43.246Z,8.60
2023-04-10T23:56:11.711Z,8.70
2023-04-10T23:58:38.859Z,8.60
